sensor_id;sensor_type;location;lat;lon;timestamp;P1;durP1;ratioP1;P2;durP2;ratioP2
41885;SDS011;27567;43.084;25.616;2023-02-15T00:02:05;35.35;;;17.00;;
41885;SDS011;27567;43.084;25.616;2023-02-15T00:04:49;36.92;;;16.35;;
41885;SDS011;27567;43.084;25.616;2023-02-15T00:07:33;35.97;;;16.92;;
41885;SDS011;27567;43.084;25.616;2023-02-15T00:10:17;32.78;;;16.20;;
41885;SDS011;27567;43.084;25.616;2023-02-15T00:13:01;34.92;;;15.70;;
41885;SDS011;27567;43.084;25.616;2023-02-15T00:15:45;32.00;;;15.45;;
41885;SDS011;27567;43.084;25.616;2023-02-15T00:18:29;34.75;;;14.73;;
41885;SDS011;27567;43.084;25.616;2023-02-15T00:21:13;29.35;;;13.90;;
41885;SDS011;27567;43.084;25.616;2023-02-15T00:23:58;33.35;;;15.95;;
41885;SDS011;27567;43.084;25.616;2023-02-15T00:26:42;29.63;;;15.43;;
41885;SDS011;27567;43.084;25.616;2023-02-15T00:29:27;36.55;;;15.30;;
41885;SDS011;27567;43.084;25.616;2023-02-15T00:32:11;29.77;;;15.40;;
41885;SDS011;27567;43.084;25.616;2023-02-15T00:34:55;36.80;;;16.05;;
41885;SDS011;27567;43.084;25.616;2023-02-15T00:37:39;32.28;;;14.93;;
41885;SDS011;27567;43.084;25.616;2023-02-15T00:40:23;34.42;;;15.98;;
41885;SDS011;27567;43.084;25.616;2023-02-15T00:43:07;32.90;;;16.65;;
41885;SDS011;27567;43.084;25.616;2023-02-15T00:45:51;32.17;;;15.05;;
41885;SDS011;27567;43.084;25.616;2023-02-15T00:48:34;32.22;;;15.90;;
41885;SDS011;27567;43.084;25.616;2023-02-15T00:51:18;32.40;;;16.95;;
41885;SDS011;27567;43.084;25.616;2023-02-15T00:54:03;33.65;;;16.63;;
41885;SDS011;27567;43.084;25.616;2023-02-15T00:56:47;32.38;;;15.27;;
41885;SDS011;27567;43.084;25.616;2023-02-15T00:59:31;34.67;;;16.58;;
41885;SDS011;27567;43.084;25.616;2023-02-15T01:02:15;32.72;;;14.77;;
41885;SDS011;27567;43.084;25.616;2023-02-15T01:04:59;36.00;;;16.42;;
41885;SDS011;27567;43.084;25.616;2023-02-15T01:07:43;33.90;;;16.42;;
41885;SDS011;27567;43.084;25.616;2023-02-15T01:10:27;32.50;;;16.08;;
41885;SDS011;27567;43.084;25.616;2023-02-15T01:13:11;36.40;;;16.30;;
41885;SDS011;27567;43.084;25.616;2023-02-15T01:15:55;34.63;;;15.07;;
41885;SDS011;27567;43.084;25.616;2023-02-15T01:18:39;39.30;;;15.48;;
41885;SDS011;27567;43.084;25.616;2023-02-15T01:21:24;32.45;;;15.05;;
41885;SDS011;27567;43.084;25.616;2023-02-15T01:24:12;33.20;;;15.55;;
41885;SDS011;27567;43.084;25.616;2023-02-15T01:26:56;35.17;;;16.17;;
41885;SDS011;27567;43.084;25.616;2023-02-15T01:29:41;34.92;;;16.45;;
41885;SDS011;27567;43.084;25.616;2023-02-15T01:32:24;38.78;;;16.65;;
41885;SDS011;27567;43.084;25.616;2023-02-15T01:35:10;34.15;;;16.70;;
41885;SDS011;27567;43.084;25.616;2023-02-15T01:37:55;37.28;;;16.95;;
41885;SDS011;27567;43.084;25.616;2023-02-15T01:40:39;34.90;;;16.42;;
41885;SDS011;27567;43.084;25.616;2023-02-15T01:43:27;32.78;;;15.40;;
41885;SDS011;27567;43.084;25.616;2023-02-15T01:46:24;34.40;;;15.18;;
41885;SDS011;27567;43.084;25.616;2023-02-15T01:49:10;30.60;;;14.15;;
41885;SDS011;27567;43.084;25.616;2023-02-15T01:51:55;33.25;;;16.15;;
41885;SDS011;27567;43.084;25.616;2023-02-15T01:54:39;36.15;;;16.60;;
41885;SDS011;27567;43.084;25.616;2023-02-15T01:57:24;31.15;;;14.23;;
41885;SDS011;27567;43.084;25.616;2023-02-15T02:00:09;32.45;;;15.07;;
41885;SDS011;27567;43.084;25.616;2023-02-15T02:02:55;39.30;;;14.82;;
41885;SDS011;27567;43.084;25.616;2023-02-15T02:05:39;34.70;;;14.45;;
41885;SDS011;27567;43.084;25.616;2023-02-15T02:08:24;31.85;;;14.10;;
41885;SDS011;27567;43.084;25.616;2023-02-15T02:11:11;30.60;;;15.02;;
41885;SDS011;27567;43.084;25.616;2023-02-15T02:13:55;35.28;;;15.27;;
41885;SDS011;27567;43.084;25.616;2023-02-15T02:16:43;32.83;;;15.02;;
41885;SDS011;27567;43.084;25.616;2023-02-15T02:25:08;34.75;;;16.98;;
41885;SDS011;27567;43.084;25.616;2023-02-15T02:36:40;30.70;;;15.23;;
41885;SDS011;27567;43.084;25.616;2023-02-15T02:42:17;36.95;;;15.55;;
41885;SDS011;27567;43.084;25.616;2023-02-15T02:47:49;33.88;;;14.10;;
41885;SDS011;27567;43.084;25.616;2023-02-15T02:50:34;35.28;;;15.55;;
41885;SDS011;27567;43.084;25.616;2023-02-15T02:53:18;34.63;;;15.02;;
41885;SDS011;27567;43.084;25.616;2023-02-15T02:56:04;37.92;;;16.90;;
41885;SDS011;27567;43.084;25.616;2023-02-15T02:58:51;35.38;;;15.75;;
41885;SDS011;27567;43.084;25.616;2023-02-15T03:01:43;33.38;;;14.82;;
41885;SDS011;27567;43.084;25.616;2023-02-15T03:04:29;39.33;;;17.08;;
41885;SDS011;27567;43.084;25.616;2023-02-15T03:07:18;37.55;;;16.20;;
41885;SDS011;27567;43.084;25.616;2023-02-15T03:10:05;39.72;;;16.08;;
41885;SDS011;27567;43.084;25.616;2023-02-15T03:12:50;39.50;;;17.02;;
41885;SDS011;27567;43.084;25.616;2023-02-15T03:15:36;37.75;;;15.63;;
41885;SDS011;27567;43.084;25.616;2023-02-15T03:18:46;39.85;;;15.45;;
41885;SDS011;27567;43.084;25.616;2023-02-15T03:21:49;37.08;;;16.45;;
41885;SDS011;27567;43.084;25.616;2023-02-15T03:24:46;40.53;;;16.13;;
41885;SDS011;27567;43.084;25.616;2023-02-15T03:27:41;38.13;;;17.80;;
41885;SDS011;27567;43.084;25.616;2023-02-15T03:30:27;42.85;;;18.25;;
41885;SDS011;27567;43.084;25.616;2023-02-15T03:33:12;37.08;;;16.33;;
41885;SDS011;27567;43.084;25.616;2023-02-15T03:36:01;38.88;;;17.65;;
41885;SDS011;27567;43.084;25.616;2023-02-15T03:38:50;41.22;;;17.35;;
41885;SDS011;27567;43.084;25.616;2023-02-15T03:41:51;36.40;;;16.65;;
41885;SDS011;27567;43.084;25.616;2023-02-15T03:44:46;38.05;;;16.67;;
41885;SDS011;27567;43.084;25.616;2023-02-15T03:47:34;37.65;;;16.58;;
41885;SDS011;27567;43.084;25.616;2023-02-15T03:50:20;37.78;;;17.05;;
41885;SDS011;27567;43.084;25.616;2023-02-15T03:53:24;31.15;;;14.98;;
41885;SDS011;27567;43.084;25.616;2023-02-15T03:56:09;42.15;;;17.42;;
41885;SDS011;27567;43.084;25.616;2023-02-15T03:58:53;42.30;;;17.48;;
41885;SDS011;27567;43.084;25.616;2023-02-15T04:02:15;41.83;;;17.10;;
41885;SDS011;27567;43.084;25.616;2023-02-15T04:05:01;38.60;;;16.42;;
41885;SDS011;27567;43.084;25.616;2023-02-15T04:07:45;37.95;;;17.35;;
41885;SDS011;27567;43.084;25.616;2023-02-15T04:10:29;40.00;;;17.23;;
41885;SDS011;27567;43.084;25.616;2023-02-15T04:13:32;37.22;;;15.73;;
41885;SDS011;27567;43.084;25.616;2023-02-15T04:16:16;43.17;;;17.75;;
41885;SDS011;27567;43.084;25.616;2023-02-15T04:19:00;34.75;;;16.27;;
41885;SDS011;27567;43.084;25.616;2023-02-15T04:22:03;39.90;;;16.15;;
41885;SDS011;27567;43.084;25.616;2023-02-15T04:25:06;35.28;;;15.75;;
41885;SDS011;27567;43.084;25.616;2023-02-15T04:27:53;40.13;;;17.20;;
41885;SDS011;27567;43.084;25.616;2023-02-15T04:30:38;36.00;;;16.65;;
41885;SDS011;27567;43.084;25.616;2023-02-15T04:33:22;44.13;;;19.40;;
41885;SDS011;27567;43.084;25.616;2023-02-15T04:36:06;33.85;;;15.82;;
41885;SDS011;27567;43.084;25.616;2023-02-15T04:38:50;40.67;;;18.30;;
41885;SDS011;27567;43.084;25.616;2023-02-15T04:41:34;39.85;;;17.67;;
41885;SDS011;27567;43.084;25.616;2023-02-15T04:44:18;36.60;;;16.30;;
41885;SDS011;27567;43.084;25.616;2023-02-15T04:47:02;38.80;;;17.40;;
41885;SDS011;27567;43.084;25.616;2023-02-15T04:49:46;41.10;;;16.85;;
41885;SDS011;27567;43.084;25.616;2023-02-15T04:52:30;37.42;;;17.45;;
41885;SDS011;27567;43.084;25.616;2023-02-15T04:55:14;36.35;;;16.30;;
41885;SDS011;27567;43.084;25.616;2023-02-15T04:57:58;44.33;;;17.38;;
41885;SDS011;27567;43.084;25.616;2023-02-15T05:00:42;34.50;;;15.18;;
41885;SDS011;27567;43.084;25.616;2023-02-15T05:03:26;36.20;;;16.45;;
41885;SDS011;27567;43.084;25.616;2023-02-15T05:06:10;32.42;;;15.45;;
41885;SDS011;27567;43.084;25.616;2023-02-15T05:08:54;33.05;;;14.63;;
41885;SDS011;27567;43.084;25.616;2023-02-15T05:11:38;37.05;;;15.60;;
41885;SDS011;27567;43.084;25.616;2023-02-15T05:14:22;33.85;;;15.88;;
41885;SDS011;27567;43.084;25.616;2023-02-15T05:17:06;30.85;;;14.50;;
41885;SDS011;27567;43.084;25.616;2023-02-15T05:19:50;35.47;;;15.82;;
41885;SDS011;27567;43.084;25.616;2023-02-15T05:22:34;35.10;;;14.85;;
41885;SDS011;27567;43.084;25.616;2023-02-15T05:25:18;31.75;;;14.68;;
41885;SDS011;27567;43.084;25.616;2023-02-15T05:28:21;35.42;;;15.88;;
41885;SDS011;27567;43.084;25.616;2023-02-15T05:33:49;40.60;;;16.00;;
41885;SDS011;27567;43.084;25.616;2023-02-15T05:36:33;33.40;;;14.48;;
41885;SDS011;27567;43.084;25.616;2023-02-15T05:39:17;31.27;;;15.00;;
41885;SDS011;27567;43.084;25.616;2023-02-15T05:42:01;31.23;;;14.73;;
41885;SDS011;27567;43.084;25.616;2023-02-15T05:44:45;32.70;;;14.90;;
41885;SDS011;27567;43.084;25.616;2023-02-15T05:47:29;32.92;;;15.60;;
41885;SDS011;27567;43.084;25.616;2023-02-15T05:50:13;31.30;;;13.75;;
41885;SDS011;27567;43.084;25.616;2023-02-15T05:52:57;39.72;;;15.25;;
41885;SDS011;27567;43.084;25.616;2023-02-15T05:55:41;34.65;;;15.95;;
41885;SDS011;27567;43.084;25.616;2023-02-15T05:58:25;40.63;;;17.90;;
41885;SDS011;27567;43.084;25.616;2023-02-15T06:01:10;35.90;;;17.40;;
41885;SDS011;27567;43.084;25.616;2023-02-15T06:03:54;36.65;;;16.80;;
41885;SDS011;27567;43.084;25.616;2023-02-15T06:06:39;39.28;;;18.27;;
41885;SDS011;27567;43.084;25.616;2023-02-15T06:09:23;46.55;;;23.73;;
41885;SDS011;27567;43.084;25.616;2023-02-15T06:12:06;34.85;;;16.67;;
41885;SDS011;27567;43.084;25.616;2023-02-15T06:14:50;34.58;;;17.33;;
41885;SDS011;27567;43.084;25.616;2023-02-15T06:17:34;36.47;;;16.45;;
41885;SDS011;27567;43.084;25.616;2023-02-15T06:20:18;32.13;;;15.65;;
41885;SDS011;27567;43.084;25.616;2023-02-15T06:23:02;37.42;;;17.00;;
41885;SDS011;27567;43.084;25.616;2023-02-15T06:25:46;36.53;;;15.15;;
41885;SDS011;27567;43.084;25.616;2023-02-15T06:28:30;35.60;;;16.45;;
41885;SDS011;27567;43.084;25.616;2023-02-15T06:31:14;33.97;;;15.48;;
41885;SDS011;27567;43.084;25.616;2023-02-15T06:33:58;31.65;;;15.25;;
41885;SDS011;27567;43.084;25.616;2023-02-15T06:36:44;37.13;;;16.77;;
41885;SDS011;27567;43.084;25.616;2023-02-15T06:39:28;40.17;;;17.27;;
41885;SDS011;27567;43.084;25.616;2023-02-15T06:42:12;39.80;;;16.88;;
41885;SDS011;27567;43.084;25.616;2023-02-15T06:44:56;39.10;;;19.48;;
41885;SDS011;27567;43.084;25.616;2023-02-15T06:47:40;30.25;;;15.13;;
41885;SDS011;27567;43.084;25.616;2023-02-15T06:50:24;29.90;;;14.95;;
41885;SDS011;27567;43.084;25.616;2023-02-15T06:53:08;31.98;;;16.60;;
41885;SDS011;27567;43.084;25.616;2023-02-15T06:55:52;33.08;;;16.73;;
41885;SDS011;27567;43.084;25.616;2023-02-15T06:58:36;28.85;;;13.38;;
41885;SDS011;27567;43.084;25.616;2023-02-15T07:01:20;45.17;;;21.08;;
41885;SDS011;27567;43.084;25.616;2023-02-15T07:04:04;30.88;;;13.32;;
41885;SDS011;27567;43.084;25.616;2023-02-15T07:06:48;30.98;;;12.55;;
41885;SDS011;27567;43.084;25.616;2023-02-15T07:09:32;27.88;;;14.00;;
41885;SDS011;27567;43.084;25.616;2023-02-15T07:12:16;29.02;;;13.02;;
41885;SDS011;27567;43.084;25.616;2023-02-15T07:15:19;27.20;;;12.88;;
41885;SDS011;27567;43.084;25.616;2023-02-15T07:18:06;26.13;;;12.65;;
41885;SDS011;27567;43.084;25.616;2023-02-15T07:20:50;27.33;;;12.45;;
41885;SDS011;27567;43.084;25.616;2023-02-15T07:23:35;22.88;;;12.10;;
41885;SDS011;27567;43.084;25.616;2023-02-15T07:26:19;25.38;;;12.70;;
41885;SDS011;27567;43.084;25.616;2023-02-15T07:29:03;25.52;;;12.57;;
41885;SDS011;27567;43.084;25.616;2023-02-15T07:31:47;26.63;;;12.23;;
41885;SDS011;27567;43.084;25.616;2023-02-15T07:34:30;26.40;;;12.38;;
41885;SDS011;27567;43.084;25.616;2023-02-15T07:37:15;23.20;;;12.48;;
41885;SDS011;27567;43.084;25.616;2023-02-15T07:39:59;22.38;;;12.15;;
41885;SDS011;27567;43.084;25.616;2023-02-15T07:42:43;27.27;;;13.00;;
41885;SDS011;27567;43.084;25.616;2023-02-15T07:45:27;24.73;;;11.55;;
41885;SDS011;27567;43.084;25.616;2023-02-15T07:48:11;25.67;;;12.20;;
41885;SDS011;27567;43.084;25.616;2023-02-15T07:50:58;31.38;;;12.50;;
41885;SDS011;27567;43.084;25.616;2023-02-15T07:53:42;25.10;;;11.98;;
41885;SDS011;27567;43.084;25.616;2023-02-15T07:56:26;24.88;;;12.02;;
41885;SDS011;27567;43.084;25.616;2023-02-15T07:59:10;27.10;;;13.05;;
41885;SDS011;27567;43.084;25.616;2023-02-15T08:01:54;28.92;;;12.48;;
41885;SDS011;27567;43.084;25.616;2023-02-15T08:04:39;25.17;;;11.13;;
41885;SDS011;27567;43.084;25.616;2023-02-15T08:07:23;23.75;;;11.93;;
41885;SDS011;27567;43.084;25.616;2023-02-15T08:10:07;27.73;;;12.43;;
41885;SDS011;27567;43.084;25.616;2023-02-15T08:12:51;30.83;;;12.45;;
41885;SDS011;27567;43.084;25.616;2023-02-15T08:15:35;22.58;;;11.93;;
41885;SDS011;27567;43.084;25.616;2023-02-15T08:18:19;26.00;;;13.15;;
41885;SDS011;27567;43.084;25.616;2023-02-15T08:21:03;29.00;;;13.55;;
41885;SDS011;27567;43.084;25.616;2023-02-15T08:23:48;22.27;;;9.82;;
41885;SDS011;27567;43.084;25.616;2023-02-15T08:26:32;23.40;;;10.60;;
41885;SDS011;27567;43.084;25.616;2023-02-15T08:29:18;19.17;;;10.45;;
41885;SDS011;27567;43.084;25.616;2023-02-15T08:32:03;19.35;;;9.30;;
41885;SDS011;27567;43.084;25.616;2023-02-15T08:34:48;21.23;;;11.15;;
41885;SDS011;27567;43.084;25.616;2023-02-15T08:37:32;22.63;;;9.63;;
41885;SDS011;27567;43.084;25.616;2023-02-15T08:40:16;28.48;;;13.95;;
41885;SDS011;27567;43.084;25.616;2023-02-15T08:43:00;28.48;;;11.43;;
41885;SDS011;27567;43.084;25.616;2023-02-15T08:45:44;26.02;;;11.35;;
41885;SDS011;27567;43.084;25.616;2023-02-15T08:48:28;26.83;;;11.43;;
41885;SDS011;27567;43.084;25.616;2023-02-15T08:51:13;27.58;;;11.32;;
41885;SDS011;27567;43.084;25.616;2023-02-15T08:53:59;22.40;;;10.90;;
41885;SDS011;27567;43.084;25.616;2023-02-15T08:56:43;20.58;;;9.77;;
41885;SDS011;27567;43.084;25.616;2023-02-15T08:59:27;20.52;;;10.38;;
41885;SDS011;27567;43.084;25.616;2023-02-15T09:02:11;23.05;;;10.90;;
41885;SDS011;27567;43.084;25.616;2023-02-15T09:04:55;22.27;;;9.63;;
41885;SDS011;27567;43.084;25.616;2023-02-15T09:07:39;19.63;;;10.32;;
41885;SDS011;27567;43.084;25.616;2023-02-15T09:10:22;21.50;;;10.65;;
41885;SDS011;27567;43.084;25.616;2023-02-15T09:13:06;20.33;;;9.65;;
41885;SDS011;27567;43.084;25.616;2023-02-15T09:15:51;23.23;;;10.93;;
41885;SDS011;27567;43.084;25.616;2023-02-15T09:18:42;21.27;;;10.80;;
41885;SDS011;27567;43.084;25.616;2023-02-15T09:21:26;16.98;;;8.82;;
41885;SDS011;27567;43.084;25.616;2023-02-15T09:24:11;24.25;;;10.90;;
41885;SDS011;27567;43.084;25.616;2023-02-15T09:26:55;40.22;;;15.00;;
41885;SDS011;27567;43.084;25.616;2023-02-15T09:29:39;31.90;;;13.40;;
41885;SDS011;27567;43.084;25.616;2023-02-15T09:32:23;21.85;;;9.40;;
41885;SDS011;27567;43.084;25.616;2023-02-15T09:35:07;19.88;;;9.48;;
41885;SDS011;27567;43.084;25.616;2023-02-15T09:37:51;18.40;;;9.38;;
41885;SDS011;27567;43.084;25.616;2023-02-15T09:40:37;20.70;;;10.05;;
41885;SDS011;27567;43.084;25.616;2023-02-15T09:43:29;23.23;;;10.63;;
41885;SDS011;27567;43.084;25.616;2023-02-15T09:46:21;20.63;;;9.60;;
41885;SDS011;27567;43.084;25.616;2023-02-15T09:49:11;24.38;;;11.95;;
41885;SDS011;27567;43.084;25.616;2023-02-15T10:26:11;17.17;;;9.18;;
41885;SDS011;27567;43.084;25.616;2023-02-15T10:29:02;15.00;;;8.05;;
41885;SDS011;27567;43.084;25.616;2023-02-15T10:31:54;23.65;;;9.02;;
41885;SDS011;27567;43.084;25.616;2023-02-15T10:35:03;13.35;;;8.23;;
41885;SDS011;27567;43.084;25.616;2023-02-15T10:37:56;13.98;;;8.52;;
41885;SDS011;27567;43.084;25.616;2023-02-15T10:49:41;16.35;;;8.15;;
41885;SDS011;27567;43.084;25.616;2023-02-15T10:58:47;16.08;;;8.20;;
41885;SDS011;27567;43.084;25.616;2023-02-15T11:01:04;14.18;;;8.43;;
41885;SDS011;27567;43.084;25.616;2023-02-15T11:07:04;21.15;;;9.25;;
41885;SDS011;27567;43.084;25.616;2023-02-15T11:09:51;17.17;;;8.90;;
41885;SDS011;27567;43.084;25.616;2023-02-15T11:12:38;14.18;;;7.22;;
41885;SDS011;27567;43.084;25.616;2023-02-15T11:15:34;14.13;;;7.55;;
41885;SDS011;27567;43.084;25.616;2023-02-15T11:23:56;13.60;;;7.55;;
41885;SDS011;27567;43.084;25.616;2023-02-15T11:26:45;12.35;;;8.32;;
41885;SDS011;27567;43.084;25.616;2023-02-15T11:29:34;16.30;;;8.47;;
41885;SDS011;27567;43.084;25.616;2023-02-15T11:32:25;12.30;;;8.10;;
41885;SDS011;27567;43.084;25.616;2023-02-15T11:35:11;12.63;;;7.70;;
41885;SDS011;27567;43.084;25.616;2023-02-15T11:46:38;16.40;;;9.40;;
41885;SDS011;27567;43.084;25.616;2023-02-15T11:49:23;16.25;;;9.40;;
41885;SDS011;27567;43.084;25.616;2023-02-15T11:55:31;15.70;;;8.20;;
41885;SDS011;27567;43.084;25.616;2023-02-15T12:01:19;14.75;;;9.05;;
41885;SDS011;27567;43.084;25.616;2023-02-15T12:04:04;18.90;;;8.35;;
41885;SDS011;27567;43.084;25.616;2023-02-15T12:07:02;17.27;;;8.35;;
41885;SDS011;27567;43.084;25.616;2023-02-15T12:12:37;13.25;;;8.00;;
41885;SDS011;27567;43.084;25.616;2023-02-15T12:15:29;16.48;;;7.20;;
41885;SDS011;27567;43.084;25.616;2023-02-15T12:18:57;13.65;;;7.57;;
41885;SDS011;27567;43.084;25.616;2023-02-15T12:21:25;14.02;;;8.18;;
41885;SDS011;27567;43.084;25.616;2023-02-15T12:24:20;17.52;;;8.40;;
41885;SDS011;27567;43.084;25.616;2023-02-15T12:27:06;12.63;;;8.07;;
41885;SDS011;27567;43.084;25.616;2023-02-15T12:30:01;16.48;;;8.10;;
41885;SDS011;27567;43.084;25.616;2023-02-15T12:32:53;12.13;;;7.43;;
41885;SDS011;27567;43.084;25.616;2023-02-15T12:35:38;17.30;;;8.77;;
41885;SDS011;27567;43.084;25.616;2023-02-15T12:38:23;14.98;;;6.75;;
41885;SDS011;27567;43.084;25.616;2023-02-15T12:41:24;18.08;;;8.82;;
41885;SDS011;27567;43.084;25.616;2023-02-15T12:46:55;17.70;;;8.30;;
41885;SDS011;27567;43.084;25.616;2023-02-15T12:49:40;14.43;;;7.63;;
41885;SDS011;27567;43.084;25.616;2023-02-15T12:52:24;15.25;;;7.75;;
41885;SDS011;27567;43.084;25.616;2023-02-15T12:58:24;13.18;;;7.82;;
41885;SDS011;27567;43.084;25.616;2023-02-15T13:06:36;15.38;;;8.18;;
41885;SDS011;27567;43.084;25.616;2023-02-15T13:15:01;17.77;;;8.95;;
41885;SDS011;27567;43.084;25.616;2023-02-15T13:17:47;14.70;;;8.40;;
41885;SDS011;27567;43.084;25.616;2023-02-15T13:20:32;13.15;;;8.20;;
41885;SDS011;27567;43.084;25.616;2023-02-15T13:26:11;14.93;;;8.38;;
41885;SDS011;27567;43.084;25.616;2023-02-15T13:29:05;14.90;;;8.13;;
41885;SDS011;27567;43.084;25.616;2023-02-15T13:31:52;12.80;;;7.57;;
41885;SDS011;27567;43.084;25.616;2023-02-15T13:34:37;12.93;;;7.97;;
41885;SDS011;27567;43.084;25.616;2023-02-15T13:40:20;14.23;;;8.05;;
41885;SDS011;27567;43.084;25.616;2023-02-15T14:17:37;15.98;;;7.63;;
41885;SDS011;27567;43.084;25.616;2023-02-15T14:20:29;19.77;;;8.25;;
41885;SDS011;27567;43.084;25.616;2023-02-15T14:23:25;15.98;;;8.43;;
41885;SDS011;27567;43.084;25.616;2023-02-15T14:29:19;18.90;;;9.35;;
41885;SDS011;27567;43.084;25.616;2023-02-15T14:32:07;17.48;;;8.25;;
41885;SDS011;27567;43.084;25.616;2023-02-15T14:34:52;13.85;;;8.05;;
41885;SDS011;27567;43.084;25.616;2023-02-15T14:44:05;15.43;;;8.68;;
41885;SDS011;27567;43.084;25.616;2023-02-15T14:47:00;19.00;;;8.25;;
41885;SDS011;27567;43.084;25.616;2023-02-15T14:49:46;20.33;;;9.75;;
41885;SDS011;27567;43.084;25.616;2023-02-15T14:52:30;14.52;;;8.32;;
41885;SDS011;27567;43.084;25.616;2023-02-15T14:55:14;14.73;;;8.10;;
41885;SDS011;27567;43.084;25.616;2023-02-15T14:58:18;16.85;;;8.52;;
41885;SDS011;27567;43.084;25.616;2023-02-15T15:01:05;16.85;;;8.32;;
41885;SDS011;27567;43.084;25.616;2023-02-15T15:03:51;18.42;;;8.85;;
41885;SDS011;27567;43.084;25.616;2023-02-15T15:06:42;17.30;;;8.95;;
41885;SDS011;27567;43.084;25.616;2023-02-15T15:09:27;16.35;;;8.07;;
41885;SDS011;27567;43.084;25.616;2023-02-15T15:12:12;20.88;;;9.20;;
41885;SDS011;27567;43.084;25.616;2023-02-15T15:14:57;19.63;;;9.05;;
41885;SDS011;27567;43.084;25.616;2023-02-15T15:17:57;18.85;;;10.10;;
41885;SDS011;27567;43.084;25.616;2023-02-15T15:20:43;20.77;;;10.05;;
41885;SDS011;27567;43.084;25.616;2023-02-15T15:23:40;18.27;;;9.48;;
41885;SDS011;27567;43.084;25.616;2023-02-15T15:26:26;18.58;;;9.23;;
41885;SDS011;27567;43.084;25.616;2023-02-15T15:29:10;19.40;;;9.88;;
41885;SDS011;27567;43.084;25.616;2023-02-15T15:31:54;21.83;;;9.98;;
41885;SDS011;27567;43.084;25.616;2023-02-15T15:41:17;19.73;;;9.80;;
41885;SDS011;27567;43.084;25.616;2023-02-15T15:47:17;19.15;;;10.23;;
41885;SDS011;27567;43.084;25.616;2023-02-15T15:50:10;21.20;;;10.05;;
41885;SDS011;27567;43.084;25.616;2023-02-15T15:52:55;21.77;;;9.88;;
41885;SDS011;27567;43.084;25.616;2023-02-15T15:55:41;17.92;;;10.43;;
41885;SDS011;27567;43.084;25.616;2023-02-15T15:58:25;18.42;;;10.18;;
41885;SDS011;27567;43.084;25.616;2023-02-15T16:01:10;24.63;;;11.20;;
41885;SDS011;27567;43.084;25.616;2023-02-15T16:03:58;20.95;;;11.55;;
41885;SDS011;27567;43.084;25.616;2023-02-15T16:06:42;30.23;;;11.55;;
41885;SDS011;27567;43.084;25.616;2023-02-15T16:09:28;21.17;;;10.90;;
41885;SDS011;27567;43.084;25.616;2023-02-15T16:12:13;23.33;;;12.60;;
41885;SDS011;27567;43.084;25.616;2023-02-15T16:14:58;25.05;;;12.02;;
41885;SDS011;27567;43.084;25.616;2023-02-15T16:17:45;26.33;;;11.75;;
41885;SDS011;27567;43.084;25.616;2023-02-15T16:20:35;24.92;;;12.75;;
41885;SDS011;27567;43.084;25.616;2023-02-15T16:23:34;27.08;;;11.68;;
41885;SDS011;27567;43.084;25.616;2023-02-15T16:29:31;25.05;;;11.75;;
41885;SDS011;27567;43.084;25.616;2023-02-15T16:32:22;31.35;;;12.98;;
41885;SDS011;27567;43.084;25.616;2023-02-15T16:35:13;25.20;;;13.02;;
41885;SDS011;27567;43.084;25.616;2023-02-15T16:37:58;28.50;;;13.68;;
41885;SDS011;27567;43.084;25.616;2023-02-15T16:40:51;32.45;;;14.75;;
41885;SDS011;27567;43.084;25.616;2023-02-15T16:43:37;31.20;;;14.70;;
41885;SDS011;27567;43.084;25.616;2023-02-15T16:46:35;35.35;;;16.45;;
41885;SDS011;27567;43.084;25.616;2023-02-15T16:49:20;31.40;;;15.13;;
41885;SDS011;27567;43.084;25.616;2023-02-15T16:52:05;30.60;;;13.75;;
41885;SDS011;27567;43.084;25.616;2023-02-15T16:54:52;37.20;;;13.95;;
41885;SDS011;27567;43.084;25.616;2023-02-15T16:57:37;32.47;;;14.30;;
41885;SDS011;27567;43.084;25.616;2023-02-15T17:00:22;32.05;;;14.25;;
41885;SDS011;27567;43.084;25.616;2023-02-15T17:05:57;32.28;;;15.43;;
41885;SDS011;27567;43.084;25.616;2023-02-15T17:08:42;29.90;;;14.38;;
41885;SDS011;27567;43.084;25.616;2023-02-15T17:11:33;30.55;;;15.95;;
41885;SDS011;27567;43.084;25.616;2023-02-15T17:14:26;35.25;;;17.65;;
41885;SDS011;27567;43.084;25.616;2023-02-15T17:17:13;40.80;;;17.92;;
41885;SDS011;27567;43.084;25.616;2023-02-15T17:19:58;35.50;;;16.63;;
41885;SDS011;27567;43.084;25.616;2023-02-15T17:22:42;31.88;;;15.00;;
41885;SDS011;27567;43.084;25.616;2023-02-15T17:25:28;27.08;;;14.05;;
41885;SDS011;27567;43.084;25.616;2023-02-15T17:28:19;29.00;;;12.82;;
41885;SDS011;27567;43.084;25.616;2023-02-15T17:31:06;24.15;;;12.82;;
41885;SDS011;27567;43.084;25.616;2023-02-15T17:33:50;24.38;;;12.07;;
41885;SDS011;27567;43.084;25.616;2023-02-15T17:36:38;22.88;;;12.77;;
41885;SDS011;27567;43.084;25.616;2023-02-15T17:39:40;34.03;;;13.98;;
41885;SDS011;27567;43.084;25.616;2023-02-15T17:42:24;25.67;;;13.65;;
41885;SDS011;27567;43.084;25.616;2023-02-15T17:45:08;26.52;;;13.25;;
41885;SDS011;27567;43.084;25.616;2023-02-15T17:47:52;24.15;;;12.07;;
41885;SDS011;27567;43.084;25.616;2023-02-15T17:50:36;24.65;;;11.73;;
41885;SDS011;27567;43.084;25.616;2023-02-15T17:53:20;23.05;;;12.88;;
41885;SDS011;27567;43.084;25.616;2023-02-15T17:56:04;23.77;;;12.63;;
41885;SDS011;27567;43.084;25.616;2023-02-15T17:58:53;21.85;;;12.63;;
41885;SDS011;27567;43.084;25.616;2023-02-15T18:01:38;49.55;;;21.27;;
41885;SDS011;27567;43.084;25.616;2023-02-15T18:04:44;79.65;;;37.90;;
41885;SDS011;27567;43.084;25.616;2023-02-15T18:07:47;81.30;;;39.22;;
41885;SDS011;27567;43.084;25.616;2023-02-15T18:10:50;87.53;;;38.78;;
41885;SDS011;27567;43.084;25.616;2023-02-15T18:13:53;71.88;;;33.50;;
41885;SDS011;27567;43.084;25.616;2023-02-15T18:16:38;83.65;;;35.70;;
41885;SDS011;27567;43.084;25.616;2023-02-15T18:19:24;70.55;;;34.58;;
41885;SDS011;27567;43.084;25.616;2023-02-15T18:22:12;69.40;;;31.70;;
41885;SDS011;27567;43.084;25.616;2023-02-15T18:24:56;60.30;;;30.98;;
41885;SDS011;27567;43.084;25.616;2023-02-15T18:27:40;79.95;;;39.17;;
41885;SDS011;27567;43.084;25.616;2023-02-15T18:30:24;75.22;;;35.08;;
41885;SDS011;27567;43.084;25.616;2023-02-15T18:34:12;111.03;;;53.60;;
41885;SDS011;27567;43.084;25.616;2023-02-15T18:39:16;49.50;;;24.20;;
41885;SDS011;27567;43.084;25.616;2023-02-15T18:42:03;110.43;;;41.78;;
41885;SDS011;27567;43.084;25.616;2023-02-15T18:44:48;134.63;;;58.22;;
41885;SDS011;27567;43.084;25.616;2023-02-15T18:47:32;112.43;;;48.10;;
41885;SDS011;27567;43.084;25.616;2023-02-15T18:50:17;85.72;;;37.70;;
41885;SDS011;27567;43.084;25.616;2023-02-15T18:53:02;57.20;;;26.23;;
41885;SDS011;27567;43.084;25.616;2023-02-15T18:55:46;77.70;;;37.97;;
41885;SDS011;27567;43.084;25.616;2023-02-15T18:58:32;76.15;;;32.95;;
41885;SDS011;27567;43.084;25.616;2023-02-15T19:01:17;65.05;;;30.13;;
41885;SDS011;27567;43.084;25.616;2023-02-15T19:04:02;59.00;;;25.73;;
41885;SDS011;27567;43.084;25.616;2023-02-15T19:06:46;54.13;;;23.70;;
41885;SDS011;27567;43.084;25.616;2023-02-15T19:09:31;46.88;;;22.40;;